Time;durP1;ratioP1;P1;durP2;ratioP2;P2;SDS_P1;SDS_P2;PMS_P1;PMS_P2;Temp;Humidity;BMP_temperature;BMP_pressure;BME280_temperature;BME280_humidity;BME280_pressure;Samples;Min_cycle;Max_cycle;Signal;HPM_P1;HPM_P2
2022/10/29 00:00:23;;;;;;;0.10;0.10;;;;;;;12.76;100.00;97191.69;4956265;28;20098;-76
2022/10/29 00:03:09;;;;;;;0.10;0.10;;;;;;;12.81;100.00;97196.28;4960882;28;20133;-77
2022/10/29 00:06:03;;;;;;;0.13;0.10;;;;;;;12.83;100.00;97192.31;4953171;28;20059;-77
2022/10/29 00:08:51;;;;;;;0.25;0.17;;;;;;;12.82;100.00;97189.88;4957536;28;20121;-76
2022/10/29 00:11:37;;;;;;;0.13;0.10;;;;;;;12.75;100.00;97192.72;4954685;28;20038;-77
2022/10/29 00:14:23;;;;;;;0.10;0.10;;;;;;;12.78;100.00;97194.94;4916609;28;20960;-76
2022/10/29 00:17:09;;;;;;;0.10;0.10;;;;;;;12.70;100.00;97191.84;4955855;28;20491;-77
2022/10/29 00:19:55;;;;;;;0.10;0.10;;;;;;;12.65;100.00;97197.13;4958238;28;20373;-77
2022/10/29 00:22:41;;;;;;;0.10;0.10;;;;;;;12.64;100.00;97199.00;4948232;28;20129;-76
2022/10/29 00:25:27;;;;;;;0.10;0.10;;;;;;;12.65;100.00;97191.75;4956435;28;20507;-76
2022/10/29 00:28:15;;;;;;;0.10;0.10;;;;;;;12.68;100.00;97197.44;4956009;28;20105;-77
2022/10/29 00:31:06;;;;;;;0.10;0.10;;;;;;;12.72;100.00;97185.16;4953925;28;20407;-76
2022/10/29 00:33:54;;;;;;;0.10;0.10;;;;;;;12.72;100.00;97178.97;4953175;28;20444;-75
2022/10/29 00:36:40;;;;;;;0.22;0.10;;;;;;;12.75;100.00;97190.03;4956383;28;20046;-75
2022/10/29 00:39:28;;;;;;;0.10;0.10;;;;;;;12.77;100.00;97187.13;4954507;28;20116;-76
2022/10/29 00:42:15;;;;;;;0.10;0.10;;;;;;;12.73;100.00;97196.72;4937276;28;20557;-76
2022/10/29 00:45:01;;;;;;;0.10;0.10;;;;;;;12.75;100.00;97187.34;4954168;28;20359;-76
2022/10/29 00:47:53;;;;;;;0.10;0.10;;;;;;;12.73;100.00;97188.66;4940850;28;20195;-76
2022/10/29 00:50:39;;;;;;;0.10;0.10;;;;;;;12.73;100.00;97185.97;4954786;28;20365;-75
2022/10/29 00:53:29;;;;;;;0.10;0.10;;;;;;;12.71;100.00;97166.59;4954802;28;20073;-76
2022/10/29 00:56:15;;;;;;;0.10;0.10;;;;;;;12.66;100.00;97174.56;4953005;28;20063;-76
2022/10/29 00:59:02;;;;;;;0.10;0.10;;;;;;;12.63;100.00;97183.94;4952826;28;20047;-76
2022/10/29 01:01:48;;;;;;;0.10;0.10;;;;;;;12.62;100.00;97186.88;4944666;28;20070;-77
2022/10/29 01:04:35;;;;;;;0.28;0.20;;;;;;;12.57;100.00;97184.91;4949637;28;20134;-76
2022/10/29 01:07:22;;;;;;;0.10;0.10;;;;;;;12.53;100.00;97183.78;4953459;28;20134;-76
2022/10/29 01:10:09;;;;;;;0.10;0.10;;;;;;;12.53;100.00;97198.00;4954729;28;20353;-76
2022/10/29 01:13:01;;;;;;;0.10;0.10;;;;;;;12.46;100.00;97197.34;4956432;28;20149;-77
2022/10/29 01:15:57;;;;;;;0.25;0.20;;;;;;;12.43;100.00;97183.59;4954813;28;20329;-77
2022/10/29 01:18:50;;;;;;;0.10;0.10;;;;;;;12.42;100.00;97184.66;4956288;28;20043;-75
2022/10/29 01:21:42;;;;;;;0.10;0.10;;;;;;;12.29;100.00;97185.75;4948334;28;20404;-75
2022/10/29 01:25:06;;;;;;;0.10;0.10;;;;;;;12.23;100.00;97181.38;4961166;28;20157;-76
2022/10/29 01:28:30;;;;;;;0.10;0.10;;;;;;;12.19;100.00;97188.25;4942752;28;20479;-76
2022/10/29 01:31:26;;;;;;;0.20;0.20;;;;;;;12.24;100.00;97196.41;4957317;28;20541;-77
2022/10/29 01:34:22;;;;;;;0.10;0.10;;;;;;;12.18;100.00;97195.50;4957771;28;20077;-77
2022/10/29 01:37:31;;;;;;;0.10;0.10;;;;;;;12.16;100.00;97202.16;4957481;28;20134;-75
2022/10/29 01:40:25;;;;;;;0.17;0.13;;;;;;;12.16;100.00;97213.72;4959497;28;20046;-77
2022/10/29 01:43:21;;;;;;;0.10;0.10;;;;;;;12.22;100.00;97210.09;4959521;28;20486;-75
2022/10/29 01:46:14;;;;;;;0.20;0.20;;;;;;;12.52;100.00;97217.84;4958346;28;20101;-76
2022/10/29 01:49:06;;;;;;;0.10;0.10;;;;;;;12.75;100.00;97206.13;4958679;28;20399;-75
2022/10/29 01:51:55;;;;;;;0.20;0.10;;;;;;;12.83;100.00;97197.66;4959067;28;20551;-74
2022/10/29 01:54:44;;;;;;;0.10;0.10;;;;;;;12.89;100.00;97200.44;4950533;28;20054;-77
2022/10/29 01:57:35;;;;;;;0.10;0.10;;;;;;;12.77;100.00;97196.00;4949567;28;20497;-75
2022/10/29 02:00:21;;;;;;;;;;;;;;;12.67;100.00;97193.13;4957828;28;20047;-76
2022/10/29 02:03:25;;;;;;;0.30;0.20;;;;;;;12.61;100.00;97187.94;4956542;28;19922;-76
2022/10/29 02:06:24;;;;;;;0.20;0.17;;;;;;;12.52;100.00;97190.19;4958866;28;20043;-76
2022/10/29 02:09:12;;;;;;;0.10;0.10;;;;;;;12.44;100.00;97177.97;4955979;28;20650;-76
2022/10/29 02:12:12;;;;;;;0.10;0.10;;;;;;;12.41;100.00;97172.28;4957527;28;20518;-76
2022/10/29 02:15:24;;;;;;;0.10;0.10;;;;;;;12.37;100.00;97166.56;4912617;28;20401;-77
2022/10/29 02:18:17;;;;;;;0.20;0.20;;;;;;;12.36;100.00;97166.81;4949019;28;20050;-75
2022/10/29 02:21:03;;;;;;;0.10;0.10;;;;;;;12.33;100.00;97152.03;4962318;28;20042;-76
2022/10/29 02:23:54;;;;;;;0.10;0.10;;;;;;;12.38;100.00;97148.63;4947284;28;20725;-75
2022/10/29 02:26:40;;;;;;;0.10;0.10;;;;;;;12.39;100.00;97156.44;4961559;28;20097;-75
2022/10/29 02:29:26;;;;;;;0.20;0.20;;;;;;;12.38;100.00;97157.50;4944419;28;20045;-77
2022/10/29 02:32:12;;;;;;;0.20;0.10;;;;;;;12.32;100.00;97142.34;4942952;28;20051;-76
2022/10/29 02:34:59;;;;;;;0.10;0.10;;;;;;;12.31;100.00;97137.22;4960417;28;20218;-75
2022/10/29 02:37:47;;;;;;;0.10;0.10;;;;;;;12.30;100.00;97136.41;4958849;28;20071;-76
2022/10/29 02:40:33;;;;;;;0.10;0.10;;;;;;;12.42;100.00;97139.03;4948390;28;20130;-77
2022/10/29 02:43:19;;;;;;;0.10;0.10;;;;;;;12.51;100.00;97129.50;4940363;28;20046;-76
2022/10/29 02:46:19;;;;;;;0.10;0.10;;;;;;;12.62;100.00;97112.50;4957818;28;20210;-77
2022/10/29 02:49:06;;;;;;;0.10;0.10;;;;;;;12.68;100.00;97114.19;4941841;28;21890;-76
2022/10/29 02:51:52;;;;;;;0.10;0.10;;;;;;;12.69;100.00;97123.09;4959301;28;20042;-75
2022/10/29 02:54:41;;;;;;;0.10;0.10;;;;;;;12.69;100.00;97125.78;4960695;28;20054;-76
2022/10/29 02:57:27;;;;;;;0.10;0.10;;;;;;;12.62;100.00;97117.06;4944913;28;20113;-75
2022/10/29 03:00:14;;;;;;;0.10;0.10;;;;;;;12.44;100.00;97118.91;4959577;28;20041;-75
2022/10/29 03:03:11;;;;;;;0.17;0.10;;;;;;;12.32;100.00;97122.75;4958466;28;20442;-74
2022/10/29 03:05:57;;;;;;;0.22;0.17;;;;;;;12.06;100.00;97116.97;4960128;28;20038;-77
2022/10/29 03:08:44;;;;;;;0.10;0.10;;;;;;;12.04;100.00;97118.25;4956722;28;20399;-75
2022/10/29 03:11:30;;;;;;;0.10;0.10;;;;;;;12.02;100.00;97115.81;4958635;28;20055;-76
2022/10/29 03:14:16;;;;;;;0.10;0.10;;;;;;;11.97;100.00;97108.47;4918573;28;20399;-77
2022/10/29 03:17:04;;;;;;;0.10;0.10;;;;;;;11.92;100.00;97121.81;4946267;28;20042;-76
2022/10/29 03:19:50;;;;;;;0.22;0.17;;;;;;;11.88;100.00;97130.56;4956264;28;20313;-75
2022/10/29 03:22:39;;;;;;;0.10;0.10;;;;;;;11.84;100.00;97127.56;4960631;28;20318;-75
2022/10/29 03:25:25;;;;;;;0.20;0.20;;;;;;;11.76;100.00;97119.06;4946756;28;20046;-75
2022/10/29 03:28:16;;;;;;;0.28;0.20;;;;;;;11.76;100.00;97113.69;4949183;28;20043;-75
2022/10/29 03:31:02;;;;;;;0.38;0.10;;;;;;;11.75;100.00;97115.56;4962035;28;20051;-77
2022/10/29 03:33:48;;;;;;;0.10;0.10;;;;;;;11.69;100.00;97111.97;4959709;28;20149;-75
2022/10/29 03:36:34;;;;;;;0.17;0.17;;;;;;;11.59;100.00;97113.63;4962632;28;20046;-76
2022/10/29 03:39:20;;;;;;;0.10;0.10;;;;;;;11.62;100.00;97118.53;4946778;28;20130;-75
2022/10/29 03:42:06;;;;;;;0.10;0.10;;;;;;;11.61;100.00;97117.72;4949293;28;20055;-77
2022/10/29 03:44:52;;;;;;;0.13;0.10;;;;;;;11.65;100.00;97120.72;4948936;28;20967;-76
2022/10/29 03:47:38;;;;;;;0.10;0.10;;;;;;;11.71;100.00;97128.63;4940044;28;20039;-77
2022/10/29 03:50:37;;;;;;;0.10;0.10;;;;;;;11.72;100.00;97114.16;4958986;28;20132;-75
2022/10/29 03:53:24;;;;;;;0.10;0.10;;;;;;;11.87;100.00;97112.84;4961525;28;20035;-76
2022/10/29 03:56:19;;;;;;;0.15;0.15;;;;;;;11.88;100.00;97115.28;4966371;28;20042;-74
2022/10/29 03:59:05;;;;;;;0.10;0.10;;;;;;;11.92;100.00;97123.69;4957640;28;20039;-75
2022/10/29 04:01:51;;;;;;;0.10;0.10;;;;;;;11.86;100.00;97111.22;4957153;28;20731;-75
2022/10/29 04:04:37;;;;;;;0.10;0.10;;;;;;;11.92;100.00;97119.13;4960384;28;20125;-75
2022/10/29 04:07:23;;;;;;;0.20;0.20;;;;;;;11.92;100.00;97115.63;4959344;28;20077;-75
2022/10/29 04:10:14;;;;;;;0.10;0.10;;;;;;;11.91;100.00;97120.19;4959982;28;20146;-74
2022/10/29 04:13:00;;;;;;;0.22;0.20;;;;;;;11.93;100.00;97112.72;4962778;28;20359;-74
2022/10/29 04:15:46;;;;;;;0.20;0.20;;;;;;;11.85;100.00;97115.78;4959588;28;20181;-75
2022/10/29 04:18:32;;;;;;;0.10;0.10;;;;;;;11.93;100.00;97128.78;4966139;28;20042;-75
2022/10/29 04:21:18;;;;;;;0.28;0.10;;;;;;;11.97;100.00;97113.84;4945892;28;20319;-76
2022/10/29 04:24:04;;;;;;;0.17;0.10;;;;;;;12.07;100.00;97109.72;4945311;28;20474;-76
2022/10/29 04:26:50;;;;;;;0.15;0.15;;;;;;;12.14;100.00;97097.78;4958441;28;20039;-76
2022/10/29 04:29:36;;;;;;;0.20;0.20;;;;;;;12.22;100.00;97093.91;4954776;28;20047;-75
2022/10/29 04:32:47;;;;;;;0.10;0.10;;;;;;;12.29;100.00;97097.19;4959708;28;20053;-75
2022/10/29 04:35:33;;;;;;;0.20;0.10;;;;;;;12.26;100.00;97108.44;4961711;28;20530;-75
2022/10/29 04:38:20;;;;;;;0.20;0.15;;;;;;;12.18;100.00;97114.19;4955707;28;20683;-76
2022/10/29 04:41:07;;;;;;;0.20;0.10;;;;;;;12.10;100.00;97109.22;4961261;28;20031;-74
2022/10/29 04:43:53;;;;;;;0.25;0.15;;;;;;;12.03;100.00;97124.66;4963873;28;20042;-75
2022/10/29 04:46:39;;;;;;;0.10;0.10;;;;;;;11.91;100.00;97119.38;4961357;28;20046;-76
2022/10/29 04:49:25;;;;;;;0.10;0.10;;;;;;;11.89;100.00;97127.63;4953862;28;20482;-76
2022/10/29 04:52:11;;;;;;;0.10;0.10;;;;;;;11.92;100.00;97119.13;4962037;28;20590;-74
2022/10/29 04:54:56;;;;;;;0.30;0.20;;;;;;;11.89;100.00;97108.88;4959552;28;20113;-74
2022/10/29 04:57:48;;;;;;;0.10;0.10;;;;;;;11.98;100.00;97118.16;4960208;28;20051;-76
2022/10/29 05:00:34;;;;;;;0.10;0.10;;;;;;;12.05;100.00;97130.59;4959075;28;20050;-75
2022/10/29 05:03:20;;;;;;;0.10;0.10;;;;;;;12.14;100.00;97127.31;4959982;28;20041;-76
2022/10/29 05:06:08;;;;;;;0.28;0.20;;;;;;;12.15;100.00;97106.66;4959007;28;20059;-75
2022/10/29 05:08:54;;;;;;;0.20;0.20;;;;;;;12.23;100.00;97107.06;4957926;28;20073;-75
2022/10/29 05:11:39;;;;;;;0.20;0.10;;;;;;;12.30;100.00;97109.59;4958609;28;20038;-75
2022/10/29 05:14:25;;;;;;;0.10;0.10;;;;;;;12.23;100.00;97106.25;4933744;28;20196;-75
2022/10/29 05:17:11;;;;;;;0.10;0.10;;;;;;;12.17;100.00;97107.22;4958081;28;20289;-76
2022/10/29 05:19:57;;;;;;;0.10;0.10;;;;;;;12.19;100.00;97102.41;4957016;28;20031;-74
2022/10/29 05:22:43;;;;;;;0.10;0.10;;;;;;;12.17;100.00;97080.38;4959881;28;20527;-75
2022/10/29 05:25:30;;;;;;;0.28;0.13;;;;;;;12.19;100.00;97083.63;4949394;28;20046;-76
2022/10/29 05:28:19;;;;;;;0.10;0.10;;;;;;;12.18;100.00;97082.00;4954464;28;20538;-75
2022/10/29 05:31:04;;;;;;;0.10;0.10;;;;;;;12.21;100.00;97070.78;4958060;28;20031;-76
2022/10/29 05:33:50;;;;;;;0.20;0.10;;;;;;;12.21;100.00;97076.13;4956860;28;20054;-75
2022/10/29 05:36:36;;;;;;;0.10;0.10;;;;;;;12.22;100.00;97067.06;4961738;28;20042;-75
2022/10/29 05:39:22;;;;;;;0.10;0.10;;;;;;;12.25;100.00;97064.69;4957847;28;20042;-75
2022/10/29 05:42:09;;;;;;;0.10;0.10;;;;;;;12.24;100.00;97060.38;4947524;28;20046;-76
2022/10/29 05:44:58;;;;;;;0.30;0.10;;;;;;;12.27;100.00;97070.63;4958798;28;20038;-74
2022/10/29 05:47:44;;;;;;;0.20;0.13;;;;;;;12.29;100.00;97067.69;4957526;28;20047;-76
2022/10/29 05:50:31;;;;;;;0.20;0.10;;;;;;;12.28;100.00;97072.25;4943427;28;20574;-75
2022/10/29 05:53:17;;;;;;;0.10;0.10;;;;;;;12.25;100.00;97071.94;4955882;28;20134;-76
2022/10/29 05:56:04;;;;;;;0.10;0.10;;;;;;;12.26;100.00;97074.38;4960378;28;20771;-76
2022/10/29 05:58:50;;;;;;;0.10;0.10;;;;;;;12.18;100.00;97061.34;4964485;28;20053;-75
2022/10/29 06:01:36;;;;;;;0.10;0.10;;;;;;;12.21;100.00;97062.72;4963700;28;20653;-75
2022/10/29 06:04:22;;;;;;;0.13;0.13;;;;;;;12.24;100.00;97065.75;4960273;28;20051;-76
2022/10/29 06:07:08;;;;;;;0.28;0.20;;;;;;;12.26;100.00;97057.44;4936046;28;20050;-75
2022/10/29 06:09:54;;;;;;;0.20;0.10;;;;;;;12.27;100.00;97070.63;4944791;28;20043;-75
2022/10/29 06:12:40;;;;;;;0.17;0.10;;;;;;;12.29;100.00;97054.25;4952526;28;20050;-76
2022/10/29 06:15:25;;;;;;;0.20;0.20;;;;;;;12.31;100.00;97044.13;4939569;28;20053;-75
2022/10/29 06:18:12;;;;;;;0.10;0.10;;;;;;;12.29;100.00;97038.16;4960226;28;20217;-76
2022/10/29 06:20:59;;;;;;;0.10;0.10;;;;;;;12.26;100.00;97041.34;4943754;28;20035;-76
2022/10/29 06:23:45;;;;;;;0.13;0.13;;;;;;;12.21;100.00;97050.13;4955560;28;20066;-75
2022/10/29 06:26:31;;;;;;;0.10;0.10;;;;;;;12.23;100.00;97050.72;4955202;28;20562;-75
2022/10/29 06:29:17;;;;;;;0.20;0.20;;;;;;;12.30;100.00;97053.25;4960528;28;20205;-75
2022/10/29 06:32:03;;;;;;;0.10;0.10;;;;;;;12.35;100.00;97063.22;4953083;28;20522;-75
2022/10/29 06:34:49;;;;;;;0.43;0.20;;;;;;;12.39;100.00;97061.69;4953024;28;20054;-75
2022/10/29 06:37:37;;;;;;;0.10;0.10;;;;;;;12.43;100.00;97068.97;4953084;28;20345;-74
2022/10/29 06:40:22;;;;;;;0.20;0.20;;;;;;;12.46;100.00;97067.69;4952471;28;20576;-76
2022/10/29 06:43:10;;;;;;;0.10;0.10;;;;;;;12.54;100.00;97075.34;4952480;28;20039;-75
2022/10/29 06:45:56;;;;;;;0.15;0.15;;;;;;;12.60;100.00;97077.00;4951710;28;20057;-74
2022/10/29 06:48:41;;;;;;;0.10;0.10;;;;;;;12.70;100.00;97087.94;4953604;28;20058;-76
2022/10/29 06:51:27;;;;;;;0.10;0.10;;;;;;;12.80;100.00;97079.19;4942812;28;20202;-76
2022/10/29 06:54:13;;;;;;;0.10;0.10;;;;;;;12.83;100.00;97078.69;4953179;28;20038;-74
2022/10/29 06:56:59;;;;;;;0.10;0.10;;;;;;;12.86;100.00;97088.16;4956367;28;20047;-76
2022/10/29 06:59:45;;;;;;;0.20;0.20;;;;;;;12.90;100.00;97083.88;4953311;28;20521;-75
2022/10/29 07:02:31;;;;;;;0.10;0.10;;;;;;;12.92;100.00;97090.66;4951488;28;20051;-76
2022/10/29 07:05:17;;;;;;;0.20;0.13;;;;;;;12.93;100.00;97083.41;4951004;28;21019;-75
2022/10/29 07:08:03;;;;;;;0.10;0.10;;;;;;;12.93;100.00;97076.16;4949641;28;20399;-75
2022/10/29 07:10:50;;;;;;;0.13;0.13;;;;;;;12.96;100.00;97061.41;4953694;28;20047;-75
2022/10/29 07:13:36;;;;;;;0.20;0.20;;;;;;;13.06;100.00;97056.97;4940335;28;20138;-74
2022/10/29 07:16:22;;;;;;;0.10;0.10;;;;;;;13.15;100.00;97061.91;4950811;28;20129;-75
2022/10/29 07:19:08;;;;;;;0.10;0.10;;;;;;;13.27;100.00;97079.56;4953043;28;20046;-76
2022/10/29 07:21:54;;;;;;;0.05;0.05;;;;;;;13.36;100.00;97071.88;4952834;28;20128;-76
2022/10/29 07:24:40;;;;;;;0.10;0.10;;;;;;;13.42;100.00;97064.69;4954061;28;20964;-75
2022/10/29 07:27:27;;;;;;;0.10;0.10;;;;;;;13.42;100.00;97064.69;4918557;28;20459;-75
2022/10/29 07:30:13;;;;;;;0.25;0.20;;;;;;;13.40;100.00;97082.97;4949071;28;20557;-76
2022/10/29 07:32:58;;;;;;;0.10;0.10;;;;;;;13.40;100.00;97078.41;4957069;28;20066;-77
2022/10/29 07:35:45;;;;;;;0.10;0.10;;;;;;;13.44;100.00;97070.63;4955216;28;20325;-77
2022/10/29 07:38:31;;;;;;;0.10;0.10;;;;;;;13.44;100.00;97073.31;4957804;28;20113;-77
2022/10/29 07:41:17;;;;;;;0.10;0.10;;;;;;;13.48;100.00;97069.06;4954531;28;20054;-78
2022/10/29 07:44:03;;;;;;;0.20;0.20;;;;;;;13.47;100.00;97073.63;4953921;28;20054;-77
2022/10/29 07:46:49;;;;;;;0.10;0.10;;;;;;;13.51;100.00;97064.00;4954592;28;20083;-77
2022/10/29 07:49:35;;;;;;;0.10;0.10;;;;;;;13.53;100.00;97083.38;4956234;28;20793;-77
2022/10/29 07:52:21;;;;;;;0.17;0.10;;;;;;;13.55;100.00;97083.13;4954447;28;20142;-77
2022/10/29 07:55:07;;;;;;;0.20;0.20;;;;;;;13.58;100.00;97094.19;4952562;28;20539;-76
2022/10/29 07:58:04;;;;;;;0.10;0.10;;;;;;;13.63;100.00;97096.94;4957375;28;20043;-77
2022/10/29 08:00:50;;;;;;;0.43;0.20;;;;;;;13.72;100.00;97102.69;4947958;28;20419;-76
2022/10/29 08:03:36;;;;;;;0.13;0.13;;;;;;;13.84;100.00;97107.91;4953858;28;20213;-76
2022/10/29 08:06:22;;;;;;;0.10;0.10;;;;;;;13.93;100.00;97107.22;4952709;28;20059;-77
2022/10/29 08:09:10;;;;;;;0.10;0.10;;;;;;;13.92;100.00;97107.44;4953213;28;20527;-77
2022/10/29 08:11:56;;;;;;;0.13;0.10;;;;;;;13.98;100.00;97109.13;4954299;28;20050;-77
2022/10/29 08:14:42;;;;;;;0.10;0.10;;;;;;;14.07;100.00;97110.28;4958209;28;20054;-77
2022/10/29 08:17:28;;;;;;;0.10;0.10;;;;;;;14.11;100.00;97110.59;4956157;28;20521;-77
2022/10/29 08:20:15;;;;;;;0.10;0.10;;;;;;;14.25;100.00;97117.19;4957759;28;20487;-76
2022/10/29 08:23:01;;;;;;;0.10;0.10;;;;;;;14.18;100.00;97101.25;4956288;28;20051;-77
2022/10/29 08:25:47;;;;;;;0.10;0.10;;;;;;;14.21;100.00;97108.81;4959334;28;20051;-77
2022/10/29 08:28:33;;;;;;;0.10;0.10;;;;;;;14.24;100.00;97104.81;4945580;28;20419;-76
2022/10/29 08:31:19;;;;;;;0.10;0.10;;;;;;;14.28;100.00;97099.72;4955771;28;20035;-77
2022/10/29 08:34:05;;;;;;;0.10;0.10;;;;;;;14.42;100.00;97106.31;4958479;28;20049;-77
2022/10/29 08:36:51;;;;;;;0.17;0.17;;;;;;;14.43;100.00;97094.47;4960794;28;20051;-77
2022/10/29 08:39:36;;;;;;;0.10;0.10;;;;;;;14.44;100.00;97104.97;4959277;28;20248;-78
2022/10/29 08:42:47;;;;;;;0.17;0.17;;;;;;;14.52;100.00;97102.91;4943076;28;20486;-78
2022/10/29 08:45:45;;;;;;;0.47;0.22;;;;;;;14.85;100.00;97099.09;4955919;28;20081;-77
2022/10/29 08:48:51;;;;;;;0.10;0.10;;;;;;;15.09;100.00;97108.38;4937697;28;20475;-76
2022/10/29 08:51:41;;;;;;;0.20;0.20;;;;;;;15.22;100.00;97093.63;4956711;28;20240;-78
2022/10/29 08:54:32;;;;;;;0.10;0.10;;;;;;;15.62;100.00;97093.00;4959299;28;20447;-77
2022/10/29 08:57:22;;;;;;;0.32;0.20;;;;;;;15.88;100.00;97092.03;4953405;28;20043;-78
2022/10/29 09:00:16;;;;;;;0.10;0.10;;;;;;;16.03;100.00;97087.69;4943617;28;20502;-78
2022/10/29 09:03:10;;;;;;;0.15;0.13;;;;;;;15.71;100.00;97064.44;4956454;28;20185;-78
2022/10/29 09:06:12;;;;;;;0.20;0.20;;;;;;;15.60;100.00;97084.34;4957473;28;20215;-78
2022/10/29 09:09:12;;;;;;;0.10;0.10;;;;;;;15.58;100.00;97089.22;4956701;28;20046;-78
2022/10/29 09:12:35;;;;;;;0.38;0.20;;;;;;;15.54;100.00;97088.91;4958606;28;20054;-77
2022/10/29 09:15:56;;;;;;;0.22;0.15;;;;;;;15.55;100.00;97077.03;4957782;28;20112;-78
2022/10/29 09:19:00;;;;;;;0.28;0.20;;;;;;;15.61;100.00;97083.31;4951826;28;20265;-78
2022/10/29 09:22:01;;;;;;;0.30;0.20;;;;;;;15.77;100.00;97076.06;4957538;28;20161;-78
2022/10/29 09:25:11;;;;;;;0.10;0.10;;;;;;;15.71;100.00;97080.63;4955393;28;20073;-78
2022/10/29 09:28:15;;;;;;;0.10;0.10;;;;;;;15.74;100.00;97074.72;4956622;28;20039;-77
2022/10/29 09:31:06;;;;;;;0.15;0.15;;;;;;;15.78;100.00;97070.38;4956827;28;20057;-78
2022/10/29 09:33:53;;;;;;;0.10;0.10;;;;;;;15.82;100.00;97078.78;4956621;28;20134;-78
2022/10/29 09:36:39;;;;;;;0.17;0.17;;;;;;;15.90;100.00;97072.06;4955016;28;20050;-78
2022/10/29 09:39:33;;;;;;;0.15;0.15;;;;;;;16.04;100.00;97079.34;4957194;28;20043;-77
2022/10/29 09:42:29;;;;;;;0.10;0.10;;;;;;;16.10;100.00;97070.16;4956582;28;20301;-78
2022/10/29 09:45:21;;;;;;;0.20;0.20;;;;;;;16.22;100.00;97072.63;4954599;28;20054;-78
2022/10/29 09:48:16;;;;;;;0.20;0.20;;;;;;;16.30;100.00;97072.06;4954316;28;20126;-77
2022/10/29 09:51:07;;;;;;;0.13;0.13;;;;;;;16.53;100.00;97075.31;4958005;28;20369;-78
2022/10/29 09:53:56;;;;;;;0.13;0.13;;;;;;;16.68;100.00;97078.00;4956184;28;20050;-78
2022/10/29 09:56:45;;;;;;;0.20;0.20;;;;;;;17.19;100.00;97075.19;4955648;28;20046;-78
2022/10/29 09:59:37;;;;;;;0.10;0.10;;;;;;;17.61;100.00;97076.66;4957966;28;20502;-78
2022/10/29 10:02:53;;;;;;;0.20;0.20;;;;;;;17.72;100.00;97080.97;4957874;28;20172;-78
2022/10/29 10:06:05;;;;;;;0.10;0.10;;;;;;;17.53;100.00;97075.34;4958635;28;20050;-78
2022/10/29 10:09:06;;;;;;;0.10;0.10;;;;;;;17.40;100.00;97074.03;4956218;28;20039;-78
2022/10/29 10:11:53;;;;;;;0.10;0.10;;;;;;;17.18;100.00;97084.41;4957495;28;20043;-78
2022/10/29 10:14:39;;;;;;;0.10;0.10;;;;;;;17.21;100.00;97076.56;4956512;28;20133;-78
2022/10/29 10:17:24;;;;;;;0.20;0.20;;;;;;;16.94;100.00;97071.50;4958307;28;20041;-78
2022/10/29 10:20:28;;;;;;;0.20;0.20;;;;;;;16.76;100.00;97069.38;4958722;28;20032;-78
2022/10/29 10:23:19;;;;;;;0.10;0.10;;;;;;;16.68;100.00;97065.31;4955405;28;20133;-78
2022/10/29 10:26:24;;;;;;;0.10;0.10;;;;;;;16.64;100.00;97079.63;4960448;28;20043;-79
2022/10/29 10:29:19;;;;;;;0.10;0.10;;;;;;;16.61;100.00;97066.66;4958709;28;20054;-78
2022/10/29 10:32:07;;;;;;;0.20;0.20;;;;;;;16.57;100.00;97060.97;4958435;28;20610;-79
2022/10/29 10:34:53;;;;;;;0.10;0.10;;;;;;;16.47;100.00;97068.28;4957878;28;20038;-78
2022/10/29 10:37:39;;;;;;;0.10;0.10;;;;;;;16.51;100.00;97063.97;4926703;28;20256;-78
2022/10/29 10:40:25;;;;;;;0.10;0.10;;;;;;;16.62;100.00;97054.78;4944837;28;20043;-78
2022/10/29 10:43:20;;;;;;;0.20;0.20;;;;;;;16.76;100.00;97057.75;4941327;28;20315;-78
2022/10/29 10:46:23;;;;;;;0.10;0.10;;;;;;;16.88;100.00;97053.66;4956641;28;20054;-78
2022/10/29 10:49:24;;;;;;;0.10;0.10;;;;;;;17.02;100.00;97051.19;4953990;28;20043;-78
2022/10/29 10:52:37;;;;;;;0.10;0.10;;;;;;;17.23;100.00;97054.66;4956602;28;20058;-78
2022/10/29 10:55:25;;;;;;;0.10;0.10;;;;;;;17.71;100.00;97057.69;4941412;28;20043;-79
2022/10/29 10:58:46;;;;;;;0.10;0.10;;;;;;;18.44;100.00;97055.00;4930705;28;20046;-78
2022/10/29 11:01:40;;;;;;;0.10;0.10;;;;;;;19.18;100.00;97047.50;4950872;28;20053;-79
2022/10/29 11:04:35;;;;;;;0.10;0.10;;;;;;;19.62;100.00;97031.00;4952003;28;20084;-76
2022/10/29 11:07:23;;;;;;;0.43;0.20;;;;;;;18.96;100.00;97039.91;4939941;28;20054;-77
2022/10/29 11:10:15;;;;;;;0.10;0.10;;;;;;;18.91;100.00;97026.41;4953694;28;20043;-77
2022/10/29 11:13:05;;;;;;;0.10;0.10;;;;;;;18.48;100.00;97034.38;4940854;28;20506;-76
2022/10/29 11:16:18;;;;;;;0.13;0.10;;;;;;;18.03;100.00;97028.25;4953391;28;20121;-76
2022/10/29 11:19:17;;;;;;;0.10;0.10;;;;;;;17.70;100.00;97027.13;4950167;28;20046;-77
2022/10/29 11:22:27;;;;;;;0.10;0.10;;;;;;;17.60;100.00;97031.75;4949652;28;20045;-77
2022/10/29 11:25:30;;;;;;;0.10;0.10;;;;;;;17.58;100.00;97037.44;4952828;28;20039;-77
2022/10/29 11:28:26;;;;;;;0.10;0.10;;;;;;;17.46;100.00;97034.25;4949700;28;20485;-76
2022/10/29 11:31:24;;;;;;;0.10;0.10;;;;;;;17.25;100.00;97028.13;4951563;28;20452;-77
2022/10/29 11:34:48;;;;;;;0.10;0.10;;;;;;;17.25;100.00;97028.13;4946120;28;20281;-76
2022/10/29 11:37:40;;;;;;;0.10;0.10;;;;;;;17.47;100.00;97022.34;4924472;28;20047;-77
2022/10/29 11:40:40;;;;;;;0.20;0.20;;;;;;;17.55;100.00;97035.28;4946031;28;20194;-77
2022/10/29 11:43:26;;;;;;;0.10;0.10;;;;;;;17.65;100.00;97023.59;4952645;28;20126;-77
2022/10/29 11:46:32;;;;;;;0.20;0.20;;;;;;;17.58;100.00;97015.78;4950736;28;20035;-77
2022/10/29 11:49:43;;;;;;;0.13;0.10;;;;;;;17.68;100.00;97026.56;4956712;28;20146;-77
2022/10/29 11:52:39;;;;;;;0.10;0.10;;;;;;;17.76;100.00;97022.50;4955127;28;20495;-78
2022/10/29 11:55:34;;;;;;;0.15;0.15;;;;;;;17.58;100.00;97009.56;4956867;28;20513;-77
2022/10/29 11:58:30;;;;;;;0.10;0.10;;;;;;;17.83;100.00;97014.06;4955713;28;20333;-77
2022/10/29 12:01:30;;;;;;;0.20;0.20;;;;;;;17.57;100.00;97026.88;4957130;28;20050;-77
2022/10/29 12:04:30;;;;;;;0.25;0.20;;;;;;;17.68;100.00;97028.47;4955700;28;20074;-78
2022/10/29 12:07:33;;;;;;;0.10;0.10;;;;;;;17.67;100.00;97021.44;4956159;28;20096;-78
2022/10/29 12:10:30;;;;;;;0.20;0.20;;;;;;;17.90;100.00;97018.06;4954360;28;20051;-77
2022/10/29 12:14:01;;;;;;;0.30;0.20;;;;;;;18.29;100.00;97018.03;4940610;28;20088;-78
2022/10/29 12:16:51;;;;;;;0.10;0.10;;;;;;;18.36;100.00;97015.81;4952624;28;20506;-77
2022/10/29 12:19:48;;;;;;;0.30;0.20;;;;;;;18.27;100.00;97005.84;4932061;28;20045;-77
2022/10/29 12:22:50;;;;;;;0.20;0.20;;;;;;;18.16;100.00;97005.13;4929870;28;20046;-77
2022/10/29 12:26:06;;;;;;;0.10;0.10;;;;;;;18.17;100.00;97005.94;4918829;28;20049;-78
2022/10/29 12:29:03;;;;;;;0.10;0.10;;;;;;;18.22;100.00;97003.19;4916418;28;20059;-77
2022/10/29 12:32:22;;;;;;;0.10;0.10;;;;;;;18.58;100.00;96992.81;4917708;28;20043;-77
2022/10/29 12:35:43;;;;;;;0.20;0.20;;;;;;;19.02;100.00;96970.16;4923592;28;20606;-78
2022/10/29 12:38:40;;;;;;;0.20;0.20;;;;;;;19.35;100.00;96984.63;4888322;28;20145;-77
2022/10/29 12:41:35;;;;;;;0.20;0.20;;;;;;;19.83;100.00;96973.66;4920770;28;20594;-78
2022/10/29 12:44:26;;;;;;;0.20;0.10;;;;;;;20.47;100.00;96977.53;4922313;28;20153;-78
2022/10/29 12:47:27;;;;;;;0.20;0.17;;;;;;;21.41;100.00;96974.34;4922598;28;20082;-80
2022/10/29 12:50:51;;;;;;;0.10;0.10;;;;;;;21.85;100.00;96970.88;4926135;28;20039;-77
2022/10/29 12:53:51;;;;;;;0.10;0.10;;;;;;;21.83;100.00;96969.56;4928268;28;20178;-78
2022/10/29 12:56:39;;;;;;;0.20;0.20;;;;;;;21.50;100.00;96977.13;4816881;28;20518;-79
2022/10/29 12:59:33;;;;;;;0.15;0.15;;;;;;;20.85;100.00;96987.16;4807699;28;20700;-78
2022/10/29 13:02:33;;;;;;;0.00;0.00;;;;;;;20.56;100.00;96979.25;4791144;28;20543;-78
2022/10/29 13:05:38;;;;;;;0.10;0.10;;;;;;;20.36;100.00;96979.56;4793965;28;20507;-78
2022/10/29 13:08:33;;;;;;;0.28;0.20;;;;;;;20.06;100.00;96986.31;3987357;28;10001363;-78
2022/10/29 13:11:45;;;;;;;0.20;0.20;;;;;;;19.83;100.00;96982.59;4774194;28;20806;-78
2022/10/29 13:15:14;;;;;;;0.10;0.10;;;;;;;19.70;100.00;96975.22;4758913;28;20139;-78
2022/10/29 13:18:37;;;;;;;0.00;0.00;;;;;;;19.43;100.00;96986.69;4766134;28;20339;-78